| time (UTC) | temp C | wind direction | speed KPH | gust KPH | rain 1hr cm | rain 24hr cm | rain mn cm | humidity % | barometer mb |
| 20260507110044 | -17 | 0.0 | 0.0 | 0.00 | 0.66 | 0.41 | 1014.9 | ||
| 20260507104539 | -17 | 0.0 | 0.0 | 0.00 | 0.66 | 0.41 | 1014.6 | ||
| 20260507103033 | -17 | 351 | 0.0 | 6.4 | 0.00 | 0.66 | 0.41 | 1014.6 | |
| 20260507101539 | 11 | 342 | 0.0 | 4.8 | 0.00 | 0.66 | 0.41 | 86 | 1014.3 |
| 20260507100044 | 11 | 21 | 0.0 | 3.2 | 0.00 | 0.66 | 0.41 | 88 | 1014.4 |
| 20260507094527 | 11 | 4 | 0.0 | 3.2 | 0.00 | 0.66 | 0.41 | 88 | 1014.5 |
| 20260507093025 | 11 | 5 | 0.0 | 0.0 | 0.00 | 0.66 | 0.41 | 88 | 1014.1 |
| 20260507091522 | 12 | 328 | 0.0 | 3.2 | 0.00 | 0.66 | 0.41 | 88 | 1014.2 |
| 20260507090020 | 12 | 46 | 1.6 | 8.0 | 0.00 | 0.66 | 0.41 | 87 | 1014.1 |
| 20260507084516 | 12 | 32 | 3.2 | 6.4 | 0.00 | 0.66 | 0.41 | 87 | 1014.1 |
| 20260507083013 | 12 | 298 | 0.0 | 4.8 | 0.00 | 0.66 | 0.41 | 88 | 1014.1 |
| 20260507081511 | 12 | 318 | 0.0 | 8.0 | 0.00 | 0.66 | 0.41 | 87 | 1013.5 |
| 20260507080006 | 12 | 344 | 1.6 | 11.3 | 0.00 | 0.66 | 0.41 | 87 | 1013.5 |
| 20260507074505 | 12 | 343 | 1.6 | 12.9 | 0.00 | 0.66 | 0.41 | 88 | 1013.1 |
| 20260507073104 | 12 | 49 | 1.6 | 12.9 | 0.00 | 0.66 | 0.41 | 90 | 1013.1 |
| 20260507071557 | 13 | 309 | 0.0 | 19.3 | 0.00 | 0.66 | 0.41 | 91 | 1012.6 |
| 20260507070055 | 13 | 316 | 0.0 | 8.0 | 0.00 | 0.66 | 0.41 | 91 | 1012.9 |
| 20260507064552 | 13 | 35 | 3.2 | 8.0 | 0.00 | 0.66 | 0.41 | 91 | 1012.6 |
| 20260507063051 | 13 | 319 | 4.8 | 16.1 | 0.05 | 0.66 | 0.41 | 91 | 1012.2 |
| 20260507061645 | 13 | 315 | 3.2 | 12.9 | 0.18 | 0.66 | 0.41 | 90 | 1012.3 |
| 20260507060041 | 13 | 354 | 1.6 | 12.9 | 0.33 | 0.66 | 0.41 | 90 | 1012.6 |
| 20260507054541 | 14 | 319 | 0.0 | 6.4 | 0.38 | 0.66 | 0.41 | 90 | 1012.7 |
| 20260507053032 | 15 | 295 | 1.6 | 9.7 | 0.36 | 0.61 | 0.36 | 90 | 1012.5 |
| 20260507051528 | 15 | 229 | 0.0 | 3.2 | 0.23 | 0.48 | 0.23 | 89 | 1012.8 |
| 20260507050033 | 16 | 104 | 0.0 | 3.2 | 0.05 | 0.30 | 0.05 | 85 | 1012.2 |
| 20260507044523 | 17 | 307 | 3.2 | 9.7 | 0.03 | 0.28 | 0.03 | 81 | 1012.8 |
| 20260507043013 | 17 | 224 | 0.0 | 3.2 | 0.00 | 0.25 | 0.00 | 79 | 1012.5 |
| 20260507041523 | 17 | 21 | 1.6 | 4.8 | 0.00 | 0.25 | 0.00 | 79 | 1012.3 |
| 20260507040006 | 17 | 8 | 3.2 | 16.1 | 0.00 | 0.25 | 0.25 | 79 | 1012.0 |
| 20260507034504 | 18 | 46 | 3.2 | 22.5 | 0.00 | 0.25 | 0.25 | 83 | 1012.2 |
| 20260507033002 | 18 | 17 | 0.0 | 3.2 | 0.00 | 0.25 | 0.25 | 87 | 1011.9 |
| 20260507031600 | 18 | 15 | 0.0 | 3.2 | 0.00 | 0.25 | 0.25 | 87 | 1011.7 |
| 20260507030100 | 18 | 340 | 0.0 | 1.6 | 0.00 | 0.25 | 0.25 | 88 | 1011.7 |
| 20260507024616 | 18 | 2 | 1.6 | 6.4 | 0.00 | 0.25 | 0.25 | 89 | 1011.5 |
| 20260507023054 | 18 | 207 | 0.0 | 0.0 | 0.00 | 0.25 | 0.25 | 89 | 1011.4 |
| 20260507021553 | 18 | 207 | 0.0 | 0.0 | 0.00 | 0.25 | 0.25 | 89 | 1011.2 |
| 20260507020106 | 18 | 207 | 0.0 | 1.6 | 0.00 | 0.25 | 0.25 | 88 | 1011.3 |
| 20260507014602 | 18 | 207 | 0.0 | 1.6 | 0.00 | 0.25 | 0.25 | 88 | 1011.2 |
| 20260507013050 | 18 | 207 | 0.0 | 1.6 | 0.00 | 0.25 | 0.25 | 88 | 1011.8 |
| 20260507011545 | 18 | 202 | 0.0 | 0.0 | 0.00 | 0.25 | 0.25 | 88 | 1011.9 |
| 20260507010146 | 18 | 202 | 0.0 | 0.0 | 0.00 | 0.25 | 0.25 | 88 | 1011.7 |
| 20260507004544 | 18 | 202 | 0.0 | 0.0 | 0.00 | 0.25 | 0.25 | 87 | 1011.3 |
| 20260507003040 | 18 | 202 | 0.0 | 0.0 | 0.00 | 0.25 | 0.25 | 85 | 1011.3 |
| 20260507001538 | 19 | 202 | 0.0 | 0.0 | 0.00 | 0.25 | 0.25 | 84 | 1011.3 |
| 20260507000036 | 19 | 202 | 0.0 | 0.0 | 0.00 | 0.25 | 0.25 | 82 | 1011.3 |
| 20260506234537 | 20 | 202 | 0.0 | 0.0 | 0.00 | 0.25 | 0.25 | 81 | 1011.1 |
| 20260506233032 | 20 | 202 | 0.0 | 1.6 | 0.00 | 0.25 | 0.25 | 80 | 1011.0 |
| 20260506231543 | 20 | 221 | 0.0 | 1.6 | 0.00 | 0.25 | 0.25 | 80 | 1010.6 |
| 20260506230034 | 20 | 201 | 0.0 | 3.2 | 0.00 | 0.25 | 0.25 | 79 | 1011.0 |
| 20260506224528 | 20 | 183 | 3.2 | 9.7 | 0.00 | 0.25 | 0.25 | 78 | 1010.5 |
| 20260506223040 | 20 | 205 | 3.2 | 14.5 | 0.00 | 0.25 | 0.25 | 78 | 1010.7 |
| 20260506221521 | 20 | 216 | 1.6 | 9.7 | 0.00 | 0.25 | 0.25 | 78 | 1010.7 |
| 20260506220024 | 20 | 232 | 3.2 | 11.3 | 0.00 | 0.25 | 0.25 | 77 | 1010.7 |
| 20260506214519 | 21 | 212 | 4.8 | 14.5 | 0.00 | 0.25 | 0.25 | 77 | 1010.8 |
| 20260506213016 | 21 | 197 | 4.8 | 14.5 | 0.00 | 0.25 | 0.25 | 76 | 1010.3 |
| 20260506211516 | 21 | 218 | 1.6 | 16.1 | 0.00 | 0.25 | 0.25 | 78 | 1010.4 |
| 20260506210016 | 21 | 190 | 8.0 | 11.3 | 0.00 | 0.25 | 0.25 | 77 | 1010.1 |
| 20260506204511 | 20 | 212 | 6.4 | 12.9 | 0.00 | 0.25 | 0.25 | 77 | 1010.2 |
| 20260506203009 | 20 | 222 | 4.8 | 12.9 | 0.00 | 0.25 | 0.25 | 78 | 1010.2 |
| 20260506201507 | 20 | 269 | 8.0 | 14.5 | 0.00 | 0.25 | 0.25 | 78 | 1010.4 |
| 20260506200006 | 20 | 215 | 3.2 | 9.7 | 0.00 | 0.25 | 0.25 | 78 | 1010.3 |
| 20260506194501 | 20 | 205 | 6.4 | 22.5 | 0.00 | 0.25 | 0.25 | 78 | 1010.2 |
| 20260506193101 | 20 | 249 | 4.8 | 14.5 | 0.00 | 0.25 | 0.25 | 79 | 1010.5 |
| 20260506191556 | 20 | 231 | 6.4 | 16.1 | 0.00 | 0.25 | 0.25 | 79 | 1010.6 |
| 20260506190054 | 20 | 224 | 8.0 | 16.1 | 0.00 | 0.25 | 0.25 | 78 | 1010.7 |
| 20260506184601 | 20 | 200 | 8.0 | 20.9 | 0.00 | 0.25 | 0.25 | 78 | 1010.8 |
| 20260506183058 | 20 | 197 | 6.4 | 19.3 | 0.00 | 0.25 | 0.25 | 78 | 1011.0 |
| 20260506181542 | 20 | 197 | 8.0 | 16.1 | 0.00 | 0.25 | 0.25 | 79 | 1011.2 |
| 20260506180041 | 19 | 204 | 9.7 | 17.7 | 0.00 | 0.25 | 0.25 | 80 | 1011.3 |
| 20260506174541 | 18 | 217 | 6.4 | 14.5 | 0.00 | 0.25 | 0.25 | 81 | 1011.4 |
| 20260506173034 | 18 | 237 | 6.4 | 22.5 | 0.00 | 0.25 | 0.25 | 82 | 1011.4 |
| 20260506171533 | 18 | 171 | 9.7 | 27.4 | 0.00 | 0.25 | 0.25 | 82 | 1011.6 |
| 20260506170033 | 18 | 244 | 11.3 | 19.3 | 0.00 | 0.25 | 0.25 | 84 | 1011.7 |
| 20260506164528 | 17 | 213 | 8.0 | 17.7 | 0.00 | 0.25 | 0.25 | 85 | 1011.8 |
| 20260506163024 | 17 | 184 | 8.0 | 17.7 | 0.03 | 0.25 | 0.25 | 86 | 1011.5 |
| 20260506161520 | 17 | 220 | 6.4 | 20.9 | 0.05 | 0.25 | 0.25 | 88 | 1011.5 |
| 20260506160019 | 16 | 199 | 4.8 | 16.1 | 0.05 | 0.25 | 0.25 | 89 | 1012.0 |
| 20260506154515 | 16 | 221 | 6.4 | 17.7 | 0.10 | 0.23 | 0.23 | 89 | 1011.9 |
| 20260506153012 | 16 | 217 | 6.4 | 12.9 | 0.20 | 0.23 | 0.23 | 88 | 1012.2 |
| 20260506151511 | 16 | 238 | 4.8 | 11.3 | 0.20 | 0.20 | 0.20 | 89 | 1013.0 |
| 20260506150007 | 16 | 245 | 4.8 | 9.7 | 0.20 | 0.20 | 0.20 | 88 | 1012.9 |
| 20260506144504 | 16 | 245 | 3.2 | 9.7 | 0.13 | 0.13 | 0.13 | 87 | 1013.1 |
| 20260506143109 | 16 | 212 | 4.8 | 12.9 | 0.03 | 0.03 | 0.03 | 84 | 1013.0 |
| 20260506141555 | 16 | 218 | 4.8 | 12.9 | 0.00 | 0.00 | 0.00 | 83 | 1013.1 |
| 20260506140051 | 17 | 224 | 8.0 | 14.5 | 0.00 | 0.00 | 0.00 | 79 | 1013.3 |
| 20260506134547 | 18 | 193 | 4.8 | 11.3 | 0.00 | 0.00 | 0.00 | 76 | 1013.2 |
| 20260506133044 | 18 | 210 | 6.4 | 12.9 | 0.00 | 0.00 | 0.00 | 75 | 1013.1 |
| 20260506131542 | 18 | 215 | 6.4 | 16.1 | 0.00 | 0.00 | 0.00 | 75 | 1013.0 |
| 20260506130041 | 18 | 219 | 8.0 | 16.1 | 0.00 | 0.00 | 0.00 | 75 | 1012.8 |
| 20260506124538 | 18 | 198 | 8.0 | 19.3 | 0.00 | 0.00 | 0.00 | 75 | 1012.8 |
| 20260506123037 | 18 | 211 | 3.2 | 12.9 | 0.00 | 0.00 | 0.00 | 75 | 1013.0 |
| 20260506121534 | 18 | 222 | 8.0 | 19.3 | 0.00 | 0.00 | 0.00 | 74 | 1013.0 |
| 20260506120040 | 18 | 225 | 6.4 | 12.9 | 0.00 | 0.00 | 0.00 | 75 | 1013.0 |
| 20260506114532 | 18 | 181 | 6.4 | 20.9 | 0.00 | 0.00 | 0.00 | 75 | 1012.8 |
| 20260506113030 | 18 | 194 | 9.7 | 19.3 | 0.00 | 0.00 | 0.00 | 75 | 1012.6 |
| 20260506111523 | 18 | 207 | 9.7 | 17.7 | 0.00 | 0.00 | 0.00 | 76 | 1012.5 |